sensor_id;sensor_type;location;lat;lon;timestamp;pressure;altitude;pressure_sealevel;temperature;humidity
62103;BME280;48077;48.104;11.702;2023-02-10T00:01:50;97135.09;;;-6.38;92.33
62103;BME280;48077;48.104;11.702;2023-02-10T00:04:14;97141.03;;;-6.36;93.12
62103;BME280;48077;48.104;11.702;2023-02-10T00:06:37;97151.19;;;-6.31;93.00
62103;BME280;48077;48.104;11.702;2023-02-10T00:09:02;97153.50;;;-6.26;92.81
62103;BME280;48077;48.104;11.702;2023-02-10T00:11:27;97146.97;;;-6.34;92.57
62103;BME280;48077;48.104;11.702;2023-02-10T00:14:19;97158.78;;;-6.28;92.09
62103;BME280;48077;48.104;11.702;2023-02-10T00:16:43;97153.38;;;-6.39;91.69
62103;BME280;48077;48.104;11.702;2023-02-10T00:19:06;97160.22;;;-6.38;91.94
62103;BME280;48077;48.104;11.702;2023-02-10T00:21:30;97171.63;;;-6.41;91.81
62103;BME280;48077;48.104;11.702;2023-02-10T00:23:53;97085.66;;;-6.97;92.23
62103;BME280;48077;48.104;11.702;2023-02-10T00:26:17;97159.59;;;-6.58;92.03
62103;BME280;48077;48.104;11.702;2023-02-10T00:28:41;97155.84;;;-6.68;91.96
62103;BME280;48077;48.104;11.702;2023-02-10T00:31:10;97173.97;;;-6.52;91.57
62103;BME280;48077;48.104;11.702;2023-02-10T00:33:34;97168.56;;;-6.63;91.40
62103;BME280;48077;48.104;11.702;2023-02-10T00:35:57;97179.63;;;-6.60;91.71
62103;BME280;48077;48.104;11.702;2023-02-10T00:38:21;97184.63;;;-6.57;92.09
62103;BME280;48077;48.104;11.702;2023-02-10T00:40:44;97176.53;;;-6.66;92.42
62103;BME280;48077;48.104;11.702;2023-02-10T00:43:07;97195.88;;;-6.56;91.86
62103;BME280;48077;48.104;11.702;2023-02-10T00:45:31;97171.56;;;-6.71;92.01
62103;BME280;48077;48.104;11.702;2023-02-10T00:47:54;97195.34;;;-6.63;92.21
62103;BME280;48077;48.104;11.702;2023-02-10T00:50:17;97201.41;;;-6.62;91.98
62103;BME280;48077;48.104;11.702;2023-02-10T00:52:41;97190.69;;;-6.72;92.49
62103;BME280;48077;48.104;11.702;2023-02-10T00:55:05;97182.41;;;-6.79;92.00
62103;BME280;48077;48.104;11.702;2023-02-10T00:57:28;97200.72;;;-6.66;91.96
62103;BME280;48077;48.104;11.702;2023-02-10T00:59:51;97203.56;;;-6.70;91.99
62103;BME280;48077;48.104;11.702;2023-02-10T01:02:15;97190.94;;;-6.77;91.93
62103;BME280;48077;48.104;11.702;2023-02-10T01:04:38;97176.88;;;-6.88;92.09
62103;BME280;48077;48.104;11.702;2023-02-10T01:07:02;97190.81;;;-6.75;91.96
62103;BME280;48077;48.104;11.702;2023-02-10T01:09:25;97183.56;;;-6.84;92.33
62103;BME280;48077;48.104;11.702;2023-02-10T01:11:51;97181.72;;;-6.82;92.75
62103;BME280;48077;48.104;11.702;2023-02-10T01:14:14;97192.66;;;-6.77;92.72
62103;BME280;48077;48.104;11.702;2023-02-10T01:16:38;97217.13;;;-6.65;92.38
62103;BME280;48077;48.104;11.702;2023-02-10T01:19:02;97212.75;;;-6.65;92.47
62103;BME280;48077;48.104;11.702;2023-02-10T01:21:25;97197.22;;;-6.81;92.16
62103;BME280;48077;48.104;11.702;2023-02-10T01:23:49;97210.50;;;-6.71;92.39
62103;BME280;48077;48.104;11.702;2023-02-10T01:26:13;97222.56;;;-6.70;92.29
62103;BME280;48077;48.104;11.702;2023-02-10T01:28:37;97215.94;;;-6.76;93.32
62103;BME280;48077;48.104;11.702;2023-02-10T01:31:10;97218.22;;;-6.69;92.89
62103;BME280;48077;48.104;11.702;2023-02-10T01:33:34;97213.03;;;-6.69;93.40
62103;BME280;48077;48.104;11.702;2023-02-10T01:35:57;97224.22;;;-6.69;93.12
62103;BME280;48077;48.104;11.702;2023-02-10T01:38:21;97206.72;;;-6.81;92.68
62103;BME280;48077;48.104;11.702;2023-02-10T01:40:47;97221.22;;;-6.77;92.90
62103;BME280;48077;48.104;11.702;2023-02-10T01:43:14;97214.19;;;-6.75;92.86
62103;BME280;48077;48.104;11.702;2023-02-10T01:45:41;97198.63;;;-6.75;92.89
62103;BME280;48077;48.104;11.702;2023-02-10T01:48:05;97215.97;;;-6.60;93.51
62103;BME280;48077;48.104;11.702;2023-02-10T01:50:38;97209.25;;;-6.64;92.94
62103;BME280;48077;48.104;11.702;2023-02-10T01:53:04;97222.38;;;-6.67;93.10
62103;BME280;48077;48.104;11.702;2023-02-10T01:55:32;97223.66;;;-6.58;93.26
62103;BME280;48077;48.104;11.702;2023-02-10T01:57:58;97217.38;;;-6.70;92.97
62103;BME280;48077;48.104;11.702;2023-02-10T02:00:24;97222.50;;;-6.68;93.56
62103;BME280;48077;48.104;11.702;2023-02-10T02:02:48;97152.25;;;-7.13;93.39
62103;BME280;48077;48.104;11.702;2023-02-10T02:05:21;97227.25;;;-6.61;93.06
62103;BME280;48077;48.104;11.702;2023-02-10T02:07:45;97227.44;;;-6.64;93.12
62103;BME280;48077;48.104;11.702;2023-02-10T02:10:11;97231.88;;;-6.66;92.98
62103;BME280;48077;48.104;11.702;2023-02-10T02:12:58;97225.00;;;-6.67;93.51
62103;BME280;48077;48.104;11.702;2023-02-10T02:15:41;97225.66;;;-6.63;93.53
62103;BME280;48077;48.104;11.702;2023-02-10T02:20:59;97240.81;;;-6.56;93.31
62103;BME280;48077;48.104;11.702;2023-02-10T02:23:57;97249.63;;;-6.58;92.80
62103;BME280;48077;48.104;11.702;2023-02-10T02:26:47;97253.13;;;-6.59;93.01
62103;BME280;48077;48.104;11.702;2023-02-10T02:29:40;97234.03;;;-6.74;92.32
62103;BME280;48077;48.104;11.702;2023-02-10T02:32:17;97241.97;;;-6.77;92.48
62103;BME280;48077;48.104;11.702;2023-02-10T02:34:53;97235.44;;;-6.84;92.25
62103;BME280;48077;48.104;11.702;2023-02-10T02:37:28;97262.50;;;-6.73;92.35
62103;BME280;48077;48.104;11.702;2023-02-10T02:39:53;97252.97;;;-6.72;92.96
62103;BME280;48077;48.104;11.702;2023-02-10T02:42:21;97257.13;;;-6.69;93.18
62103;BME280;48077;48.104;11.702;2023-02-10T02:44:46;97256.22;;;-6.68;93.25
62103;BME280;48077;48.104;11.702;2023-02-10T02:47:21;97255.47;;;-6.70;93.02
62103;BME280;48077;48.104;11.702;2023-02-10T02:50:13;97260.81;;;-6.74;92.98
62103;BME280;48077;48.104;11.702;2023-02-10T02:52:52;97262.84;;;-6.79;92.86
62103;BME280;48077;48.104;11.702;2023-02-10T02:58:31;97251.84;;;-7.00;93.03
62103;BME280;48077;48.104;11.702;2023-02-10T03:00:58;97256.78;;;-6.95;93.07
62103;BME280;48077;48.104;11.702;2023-02-10T03:03:28;97264.81;;;-6.84;93.18
62103;BME280;48077;48.104;11.702;2023-02-10T03:05:51;97260.06;;;-6.92;93.15
62103;BME280;48077;48.104;11.702;2023-02-10T03:08:14;97255.72;;;-6.91;92.92
62103;BME280;48077;48.104;11.702;2023-02-10T03:10:38;97248.41;;;-7.00;92.75
62103;BME280;48077;48.104;11.702;2023-02-10T03:13:01;97261.81;;;-6.92;92.81
62103;BME280;48077;48.104;11.702;2023-02-10T03:15:24;97251.84;;;-7.00;92.34
62103;BME280;48077;48.104;11.702;2023-02-10T03:17:48;97235.16;;;-7.12;92.39
62103;BME280;48077;48.104;11.702;2023-02-10T03:20:11;97259.47;;;-6.97;92.80
62103;BME280;48077;48.104;11.702;2023-02-10T03:22:35;97261.91;;;-6.94;93.32
62103;BME280;48077;48.104;11.702;2023-02-10T03:24:58;97252.75;;;-7.01;93.13
62103;BME280;48077;48.104;11.702;2023-02-10T03:27:22;97248.50;;;-7.02;93.21
62103;BME280;48077;48.104;11.702;2023-02-10T03:29:46;97238.66;;;-7.13;93.14
62103;BME280;48077;48.104;11.702;2023-02-10T03:32:11;97260.28;;;-6.96;92.89
62103;BME280;48077;48.104;11.702;2023-02-10T03:34:35;97250.41;;;-7.05;92.58
62103;BME280;48077;48.104;11.702;2023-02-10T03:36:58;97237.31;;;-7.20;92.54
62103;BME280;48077;48.104;11.702;2023-02-10T03:39:21;97243.66;;;-7.25;93.28
62103;BME280;48077;48.104;11.702;2023-02-10T03:41:45;97253.88;;;-7.22;93.15
62103;BME280;48077;48.104;11.702;2023-02-10T03:44:08;97239.78;;;-7.34;93.17
62103;BME280;48077;48.104;11.702;2023-02-10T03:46:31;97256.72;;;-7.27;92.84
62103;BME280;48077;48.104;11.702;2023-02-10T03:48:55;97253.44;;;-7.30;92.78
62103;BME280;48077;48.104;11.702;2023-02-10T03:51:19;97255.09;;;-7.29;92.81
62103;BME280;48077;48.104;11.702;2023-02-10T03:53:42;97275.41;;;-7.20;93.12
62103;BME280;48077;48.104;11.702;2023-02-10T03:56:06;97279.81;;;-7.22;92.50
62103;BME280;48077;48.104;11.702;2023-02-10T03:58:29;97279.19;;;-7.27;92.14
62103;BME280;48077;48.104;11.702;2023-02-10T04:00:52;97261.03;;;-7.43;92.01
62103;BME280;48077;48.104;11.702;2023-02-10T04:03:16;97283.88;;;-7.34;92.48
62103;BME280;48077;48.104;11.702;2023-02-10T04:05:39;97274.63;;;-7.40;92.58
62103;BME280;48077;48.104;11.702;2023-02-10T04:08:03;97283.63;;;-7.29;92.96
62103;BME280;48077;48.104;11.702;2023-02-10T04:10:27;97276.16;;;-7.36;92.55
62103;BME280;48077;48.104;11.702;2023-02-10T04:12:50;97283.56;;;-7.28;93.16
62103;BME280;48077;48.104;11.702;2023-02-10T04:15:13;97282.88;;;-7.32;92.10
62103;BME280;48077;48.104;11.702;2023-02-10T04:17:37;97279.06;;;-7.42;92.33
62103;BME280;48077;48.104;11.702;2023-02-10T04:20:00;97274.94;;;-7.46;92.58
62103;BME280;48077;48.104;11.702;2023-02-10T04:22:23;97278.31;;;-7.44;92.94
62103;BME280;48077;48.104;11.702;2023-02-10T04:24:47;97260.56;;;-7.51;92.81
62103;BME280;48077;48.104;11.702;2023-02-10T04:27:10;97269.09;;;-7.49;93.60
62103;BME280;48077;48.104;11.702;2023-02-10T04:29:33;97285.19;;;-7.43;93.98
62103;BME280;48077;48.104;11.702;2023-02-10T04:32:01;97266.22;;;-7.43;93.80
62103;BME280;48077;48.104;11.702;2023-02-10T04:34:25;97269.94;;;-7.49;94.17
62103;BME280;48077;48.104;11.702;2023-02-10T04:36:48;97277.47;;;-7.44;94.27
62103;BME280;48077;48.104;11.702;2023-02-10T04:39:11;97295.16;;;-7.35;94.19
62103;BME280;48077;48.104;11.702;2023-02-10T04:41:35;97263.00;;;-7.48;94.23
62103;BME280;48077;48.104;11.702;2023-02-10T04:43:58;97289.69;;;-7.29;93.99
62103;BME280;48077;48.104;11.702;2023-02-10T04:46:21;97271.84;;;-7.35;94.03
62103;BME280;48077;48.104;11.702;2023-02-10T04:48:45;97269.63;;;-7.43;93.57
62103;BME280;48077;48.104;11.702;2023-02-10T04:51:10;97295.63;;;-7.27;93.05
62103;BME280;48077;48.104;11.702;2023-02-10T04:53:33;97282.41;;;-7.40;93.33
62103;BME280;48077;48.104;11.702;2023-02-10T04:55:57;97293.25;;;-7.32;93.11
62103;BME280;48077;48.104;11.702;2023-02-10T04:58:20;97277.41;;;-7.43;92.70
62103;BME280;48077;48.104;11.702;2023-02-10T05:00:45;97291.97;;;-7.40;93.29
62103;BME280;48077;48.104;11.702;2023-02-10T05:03:08;97296.13;;;-7.38;93.47
62103;BME280;48077;48.104;11.702;2023-02-10T05:05:31;97277.72;;;-7.49;93.58
62103;BME280;48077;48.104;11.702;2023-02-10T05:07:54;97287.78;;;-7.43;92.78
62103;BME280;48077;48.104;11.702;2023-02-10T05:10:18;97301.50;;;-7.41;92.70
62103;BME280;48077;48.104;11.702;2023-02-10T05:12:41;97285.63;;;-7.52;92.86
62103;BME280;48077;48.104;11.702;2023-02-10T05:15:05;97297.75;;;-7.53;92.49
62103;BME280;48077;48.104;11.702;2023-02-10T05:17:30;97303.00;;;-7.54;92.31
62103;BME280;48077;48.104;11.702;2023-02-10T05:19:54;97296.41;;;-7.60;92.31
62103;BME280;48077;48.104;11.702;2023-02-10T05:22:17;97308.28;;;-7.56;92.27
62103;BME280;48077;48.104;11.702;2023-02-10T05:24:40;97294.13;;;-7.66;92.26
62103;BME280;48077;48.104;11.702;2023-02-10T05:27:04;97316.59;;;-7.66;92.40
62103;BME280;48077;48.104;11.702;2023-02-10T05:29:28;97309.25;;;-7.76;92.53
62103;BME280;48077;48.104;11.702;2023-02-10T05:31:51;97323.69;;;-7.70;92.49
62103;BME280;48077;48.104;11.702;2023-02-10T05:34:16;97291.88;;;-7.91;92.34
62103;BME280;48077;48.104;11.702;2023-02-10T05:36:40;97336.47;;;-7.67;92.01
62103;BME280;48077;48.104;11.702;2023-02-10T05:39:06;97308.13;;;-7.87;92.09
62103;BME280;48077;48.104;11.702;2023-02-10T05:41:47;97336.09;;;-7.77;92.32
62103;BME280;48077;48.104;11.702;2023-02-10T05:44:10;97321.22;;;-7.90;91.73
62103;BME280;48077;48.104;11.702;2023-02-10T05:46:34;97322.16;;;-7.91;91.81
62103;BME280;48077;48.104;11.702;2023-02-10T05:48:57;97343.25;;;-7.82;91.84
62103;BME280;48077;48.104;11.702;2023-02-10T05:51:20;97344.25;;;-7.84;92.35
62103;BME280;48077;48.104;11.702;2023-02-10T05:53:44;97336.69;;;-7.89;91.96
62103;BME280;48077;48.104;11.702;2023-02-10T05:56:07;97348.59;;;-7.85;91.97
62103;BME280;48077;48.104;11.702;2023-02-10T05:58:30;97354.81;;;-7.89;92.09
62103;BME280;48077;48.104;11.702;2023-02-10T06:00:55;97355.81;;;-7.91;92.83
62103;BME280;48077;48.104;11.702;2023-02-10T06:03:18;97363.59;;;-7.91;92.41
62103;BME280;48077;48.104;11.702;2023-02-10T06:05:42;97326.50;;;-8.11;92.82
62103;BME280;48077;48.104;11.702;2023-02-10T06:08:06;97359.19;;;-7.89;92.83
62103;BME280;48077;48.104;11.702;2023-02-10T06:10:29;97350.22;;;-8.01;92.64
62103;BME280;48077;48.104;11.702;2023-02-10T06:12:53;97348.06;;;-8.10;92.71
62103;BME280;48077;48.104;11.702;2023-02-10T06:15:19;97358.41;;;-8.10;92.38
62103;BME280;48077;48.104;11.702;2023-02-10T06:17:43;97377.88;;;-8.02;92.78
62103;BME280;48077;48.104;11.702;2023-02-10T06:20:06;97386.59;;;-8.04;92.72
62103;BME280;48077;48.104;11.702;2023-02-10T06:22:30;97363.41;;;-8.25;92.66
62103;BME280;48077;48.104;11.702;2023-02-10T06:24:53;97388.53;;;-8.08;93.05
62103;BME280;48077;48.104;11.702;2023-02-10T06:27:16;97355.72;;;-8.26;93.30
62103;BME280;48077;48.104;11.702;2023-02-10T06:29:40;97372.50;;;-8.16;92.96
62103;BME280;48077;48.104;11.702;2023-02-10T06:32:03;97394.31;;;-8.03;92.38
62103;BME280;48077;48.104;11.702;2023-02-10T06:34:26;97383.53;;;-8.13;92.46
62103;BME280;48077;48.104;11.702;2023-02-10T06:36:50;97366.78;;;-8.23;92.33
62103;BME280;48077;48.104;11.702;2023-02-10T06:39:13;97388.72;;;-8.13;92.31
62103;BME280;48077;48.104;11.702;2023-02-10T06:41:36;97394.94;;;-8.17;92.96
62103;BME280;48077;48.104;11.702;2023-02-10T06:44:00;97386.72;;;-8.25;93.13
62103;BME280;48077;48.104;11.702;2023-02-10T06:46:24;97398.63;;;-8.21;93.71
62103;BME280;48077;48.104;11.702;2023-02-10T06:48:47;97380.19;;;-8.34;94.69
62103;BME280;48077;48.104;11.702;2023-02-10T06:51:11;97405.31;;;-8.17;94.90
62103;BME280;48077;48.104;11.702;2023-02-10T06:53:34;97401.03;;;-8.18;94.81
62103;BME280;48077;48.104;11.702;2023-02-10T06:55:59;97394.28;;;-8.20;94.96
62103;BME280;48077;48.104;11.702;2023-02-10T06:58:22;97420.50;;;-8.09;95.04
62103;BME280;48077;48.104;11.702;2023-02-10T07:00:46;97399.34;;;-8.19;95.47
62103;BME280;48077;48.104;11.702;2023-02-10T07:03:11;97420.97;;;-8.01;95.58
62103;BME280;48077;48.104;11.702;2023-02-10T07:05:35;97404.06;;;-8.08;95.20
62103;BME280;48077;48.104;11.702;2023-02-10T07:07:59;97411.47;;;-8.00;95.41
62103;BME280;48077;48.104;11.702;2023-02-10T07:10:23;97402.84;;;-8.01;95.48
62103;BME280;48077;48.104;11.702;2023-02-10T07:12:46;97410.50;;;-7.98;95.37
62103;BME280;48077;48.104;11.702;2023-02-10T07:15:14;97412.81;;;-7.91;95.57
62103;BME280;48077;48.104;11.702;2023-02-10T07:17:38;97431.88;;;-7.75;95.98
62103;BME280;48077;48.104;11.702;2023-02-10T07:20:02;97405.41;;;-7.82;95.92
62103;BME280;48077;48.104;11.702;2023-02-10T07:22:25;97409.53;;;-7.78;95.79
62103;BME280;48077;48.104;11.702;2023-02-10T07:24:49;97408.44;;;-7.72;96.12
62103;BME280;48077;48.104;11.702;2023-02-10T07:27:12;97428.88;;;-7.48;96.61
62103;BME280;48077;48.104;11.702;2023-02-10T07:29:35;97410.44;;;-7.60;96.57
62103;BME280;48077;48.104;11.702;2023-02-10T07:31:59;97444.38;;;-7.29;95.91
62103;BME280;48077;48.104;11.702;2023-02-10T07:34:22;97426.34;;;-7.31;95.93
62103;BME280;48077;48.104;11.702;2023-02-10T07:36:46;97423.34;;;-7.23;96.10
62103;BME280;48077;48.104;11.702;2023-02-10T07:39:09;97431.59;;;-7.15;96.19
62103;BME280;48077;48.104;11.702;2023-02-10T07:41:34;97424.44;;;-7.10;95.90
62103;BME280;48077;48.104;11.702;2023-02-10T07:43:57;97437.09;;;-6.86;95.26
62103;BME280;48077;48.104;11.702;2023-02-10T07:46:20;97434.19;;;-6.80;95.66
62103;BME280;48077;48.104;11.702;2023-02-10T07:48:44;97429.59;;;-6.75;95.71
62103;BME280;48077;48.104;11.702;2023-02-10T07:51:07;97437.59;;;-6.62;95.51
62103;BME280;48077;48.104;11.702;2023-02-10T07:53:31;97453.13;;;-6.45;95.92
62103;BME280;48077;48.104;11.702;2023-02-10T07:55:57;97425.38;;;-6.60;95.53
62103;BME280;48077;48.104;11.702;2023-02-10T07:58:21;97436.47;;;-6.41;95.68
62103;BME280;48077;48.104;11.702;2023-02-10T08:00:44;97423.50;;;-6.41;95.88
62103;BME280;48077;48.104;11.702;2023-02-10T08:03:12;97458.16;;;-6.08;95.63
62103;BME280;48077;48.104;11.702;2023-02-10T08:05:35;97445.84;;;-6.05;95.63
62103;BME280;48077;48.104;11.702;2023-02-10T08:08:00;97449.34;;;-5.90;95.78
62103;BME280;48077;48.104;11.702;2023-02-10T08:10:24;97457.16;;;-5.74;95.03
62103;BME280;48077;48.104;11.702;2023-02-10T08:12:47;97457.06;;;-5.57;94.74
62103;BME280;48077;48.104;11.702;2023-02-10T08:15:11;97451.09;;;-5.43;94.42
62103;BME280;48077;48.104;11.702;2023-02-10T08:17:34;97440.44;;;-5.38;94.18
62103;BME280;48077;48.104;11.702;2023-02-10T08:19:58;97460.03;;;-5.17;93.58
62103;BME280;48077;48.104;11.702;2023-02-10T08:22:21;97444.75;;;-5.23;93.56
62103;BME280;48077;48.104;11.702;2023-02-10T08:24:44;97445.91;;;-5.13;93.23
62103;BME280;48077;48.104;11.702;2023-02-10T08:27:08;97459.38;;;-4.90;93.31
62103;BME280;48077;48.104;11.702;2023-02-10T08:29:31;97444.50;;;-4.88;93.08
62103;BME280;48077;48.104;11.702;2023-02-10T08:32:00;97440.44;;;-4.78;92.82
62103;BME280;48077;48.104;11.702;2023-02-10T08:34:24;97430.50;;;-4.71;92.44
62103;BME280;48077;48.104;11.702;2023-02-10T08:36:47;97461.03;;;-4.44;92.53
62103;BME280;48077;48.104;11.702;2023-02-10T08:39:11;97455.84;;;-4.30;91.62
62103;BME280;48077;48.104;11.702;2023-02-10T08:41:35;97461.44;;;-4.22;91.42
62103;BME280;48077;48.104;11.702;2023-02-10T08:43:59;97446.84;;;-4.10;90.85
62103;BME280;48077;48.104;11.702;2023-02-10T08:46:22;97437.03;;;-4.07;90.28
62103;BME280;48077;48.104;11.702;2023-02-10T08:48:46;97464.28;;;-3.83;90.02
62103;BME280;48077;48.104;11.702;2023-02-10T08:51:12;97447.16;;;-3.73;88.89
62103;BME280;48077;48.104;11.702;2023-02-10T08:53:45;97462.94;;;-3.48;87.53
62103;BME280;48077;48.104;11.702;2023-02-10T08:56:13;97459.56;;;-3.35;87.47
62103;BME280;48077;48.104;11.702;2023-02-10T08:58:36;97449.03;;;-3.21;86.03
62103;BME280;48077;48.104;11.702;2023-02-10T09:01:00;97441.78;;;-3.16;85.14
62103;BME280;48077;48.104;11.702;2023-02-10T09:03:24;97455.84;;;-2.91;85.02
62103;BME280;48077;48.104;11.702;2023-02-10T09:05:49;97457.75;;;-2.80;84.13
62103;BME280;48077;48.104;11.702;2023-02-10T09:08:13;97459.63;;;-2.70;83.83
62103;BME280;48077;48.104;11.702;2023-02-10T09:10:39;97454.72;;;-2.61;83.09
62103;BME280;48077;48.104;11.702;2023-02-10T09:13:03;97455.78;;;-2.51;82.24
62103;BME280;48077;48.104;11.702;2023-02-10T09:15:26;97457.78;;;-2.42;82.08
62103;BME280;48077;48.104;11.702;2023-02-10T09:17:50;97450.47;;;-2.37;81.73
62103;BME280;48077;48.104;11.702;2023-02-10T09:20:13;97461.88;;;-2.12;80.64
62103;BME280;48077;48.104;11.702;2023-02-10T09:22:36;97463.75;;;-2.01;80.43
62103;BME280;48077;48.104;11.702;2023-02-10T09:25:00;97459.31;;;-1.88;79.95
62103;BME280;48077;48.104;11.702;2023-02-10T09:27:23;97466.72;;;-1.69;78.76
62103;BME280;48077;48.104;11.702;2023-02-10T09:29:47;97452.88;;;-1.58;77.91
62103;BME280;48077;48.104;11.702;2023-02-10T09:32:10;97464.53;;;-1.38;77.25
62103;BME280;48077;48.104;11.702;2023-02-10T09:34:34;97460.13;;;-1.38;76.79
62103;BME280;48077;48.104;11.702;2023-02-10T09:36:58;97452.56;;;-1.30;76.78
62103;BME280;48077;48.104;11.702;2023-02-10T09:39:24;97471.25;;;-1.10;75.79
62103;BME280;48077;48.104;11.702;2023-02-10T09:42:09;97478.19;;;-0.98;75.11
62103;BME280;48077;48.104;11.702;2023-02-10T09:44:36;97448.78;;;-1.02;74.52
62103;BME280;48077;48.104;11.702;2023-02-10T09:49:58;97467.00;;;-0.65;74.26
62103;BME280;48077;48.104;11.702;2023-02-10T09:52:45;97472.19;;;-0.52;73.75
62103;BME280;48077;48.104;11.702;2023-02-10T09:55:15;97472.00;;;-0.37;73.07
62103;BME280;48077;48.104;11.702;2023-02-10T09:57:45;97480.81;;;-0.27;73.14
62103;BME280;48077;48.104;11.702;2023-02-10T10:02:50;97364.31;;;-0.70;71.42
62103;BME280;48077;48.104;11.702;2023-02-10T10:05:40;97481.44;;;0.10;70.82
62103;BME280;48077;48.104;11.702;2023-02-10T10:08:14;97452.13;;;0.05;70.88
62103;BME280;48077;48.104;11.702;2023-02-10T10:10:42;97434.69;;;0.04;70.34
62103;BME280;48077;48.104;11.702;2023-02-10T10:13:14;97406.44;;;0.08;69.14
62103;BME280;48077;48.104;11.702;2023-02-10T10:15:54;97453.31;;;0.46;68.43
62103;BME280;48077;48.104;11.702;2023-02-10T10:18:30;97431.81;;;0.52;67.85
62103;BME280;48077;48.104;11.702;2023-02-10T10:21:39;97456.44;;;0.84;67.57
62103;BME280;48077;48.104;11.702;2023-02-10T10:24:19;97459.38;;;1.01;67.62
62103;BME280;48077;48.104;11.702;2023-02-10T10:29:54;97458.00;;;1.39;65.80
62103;BME280;48077;48.104;11.702;2023-02-10T10:35:15;97438.22;;;1.56;64.55
62103;BME280;48077;48.104;11.702;2023-02-10T10:37:39;97438.44;;;1.74;64.35
62103;BME280;48077;48.104;11.702;2023-02-10T10:40:05;97441.03;;;1.86;63.77
62103;BME280;48077;48.104;11.702;2023-02-10T10:42:42;97438.72;;;2.02;63.64
62103;BME280;48077;48.104;11.702;2023-02-10T10:45:16;97430.16;;;2.10;62.59
62103;BME280;48077;48.104;11.702;2023-02-10T10:47:47;97441.63;;;2.30;62.15
62103;BME280;48077;48.104;11.702;2023-02-10T10:50:13;97416.25;;;2.29;61.91
62103;BME280;48077;48.104;11.702;2023-02-10T10:52:40;97441.16;;;2.55;61.12
62103;BME280;48077;48.104;11.702;2023-02-10T10:55:15;97411.91;;;2.58;60.49
62103;BME280;48077;48.104;11.702;2023-02-10T10:57:40;97406.78;;;2.76;60.26
62103;BME280;48077;48.104;11.702;2023-02-10T11:00:22;97415.28;;;2.99;59.34
62103;BME280;48077;48.104;11.702;2023-02-10T11:03:01;97398.34;;;3.02;58.64
62103;BME280;48077;48.104;11.702;2023-02-10T11:05:28;97402.34;;;3.35;57.87
62103;BME280;48077;48.104;11.702;2023-02-10T11:07:52;97390.84;;;3.36;56.77
62103;BME280;48077;48.104;11.702;2023-02-10T11:10:24;97395.25;;;3.55;56.60
62103;BME280;48077;48.104;11.702;2023-02-10T11:12:48;97395.63;;;3.70;57.29
62103;BME280;48077;48.104;11.702;2023-02-10T11:15:32;97395.84;;;3.96;56.32
62103;BME280;48077;48.104;11.702;2023-02-10T11:17:58;97378.16;;;4.07;56.23
62103;BME280;48077;48.104;11.702;2023-02-10T11:20:32;97377.16;;;4.35;55.52
62103;BME280;48077;48.104;11.702;2023-02-10T11:23:02;97371.47;;;4.58;53.98
62103;BME280;48077;48.104;11.702;2023-02-10T11:25:33;97378.25;;;4.60;53.73
62103;BME280;48077;48.104;11.702;2023-02-10T11:27:58;97370.13;;;4.72;53.29
62103;BME280;48077;48.104;11.702;2023-02-10T11:30:28;97375.19;;;4.83;53.18
62103;BME280;48077;48.104;11.702;2023-02-10T11:32:52;97357.75;;;4.90;52.94
62103;BME280;48077;48.104;11.702;2023-02-10T11:35:16;97326.03;;;4.90;51.99
62103;BME280;48077;48.104;11.702;2023-02-10T11:37:40;97348.00;;;5.09;51.02
62103;BME280;48077;48.104;11.702;2023-02-10T11:42:41;97341.84;;;5.08;51.56
62103;BME280;48077;48.104;11.702;2023-02-10T11:45:29;97351.22;;;5.20;50.12
62103;BME280;48077;48.104;11.702;2023-02-10T11:48:15;97350.59;;;5.26;50.46
62103;BME280;48077;48.104;11.702;2023-02-10T11:50:39;97341.53;;;5.29;51.44
62103;BME280;48077;48.104;11.702;2023-02-10T11:53:02;97330.75;;;5.48;50.73
62103;BME280;48077;48.104;11.702;2023-02-10T11:55:55;97346.63;;;5.75;50.57
62103;BME280;48077;48.104;11.702;2023-02-10T12:01:19;97341.38;;;6.09;49.63
62103;BME280;48077;48.104;11.702;2023-02-10T12:04:05;97336.63;;;6.21;48.83
62103;BME280;48077;48.104;11.702;2023-02-10T12:06:36;97320.47;;;6.06;48.41
62103;BME280;48077;48.104;11.702;2023-02-10T12:09:26;97333.94;;;6.13;48.24
62103;BME280;48077;48.104;11.702;2023-02-10T12:14:49;97342.56;;;5.54;48.02
62103;BME280;48077;48.104;11.702;2023-02-10T12:17:31;97338.25;;;5.09;48.55
62103;BME280;48077;48.104;11.702;2023-02-10T12:23:26;97339.84;;;4.66;49.82
62103;BME280;48077;48.104;11.702;2023-02-10T12:26:07;97315.97;;;4.40;50.14
62103;BME280;48077;48.104;11.702;2023-02-10T12:31:48;97328.81;;;4.07;50.04
62103;BME280;48077;48.104;11.702;2023-02-10T12:34:23;97333.59;;;3.94;50.29
62103;BME280;48077;48.104;11.702;2023-02-10T12:40:07;97327.00;;;3.70;52.08
62103;BME280;48077;48.104;11.702;2023-02-10T12:42:49;97328.28;;;3.66;52.12
62103;BME280;48077;48.104;11.702;2023-02-10T12:45:47;97323.03;;;3.56;52.16
62103;BME280;48077;48.104;11.702;2023-02-10T12:48:38;97320.34;;;3.66;53.02
62103;BME280;48077;48.104;11.702;2023-02-10T12:53:35;97319.28;;;3.96;51.72
62103;BME280;48077;48.104;11.702;2023-02-10T12:56:21;97317.00;;;4.01;51.76
62103;BME280;48077;48.104;11.702;2023-02-10T12:58:49;97287.94;;;3.83;50.53
62103;BME280;48077;48.104;11.702;2023-02-10T13:01:30;97310.31;;;4.07;50.05
62103;BME280;48077;48.104;11.702;2023-02-10T13:04:25;97308.16;;;3.93;51.31
62103;BME280;48077;48.104;11.702;2023-02-10T13:07:16;97305.72;;;3.81;51.34
62103;BME280;48077;48.104;11.702;2023-02-10T13:09:54;97314.50;;;3.72;52.71
62103;BME280;48077;48.104;11.702;2023-02-10T13:12:23;97300.38;;;3.63;52.57
62103;BME280;48077;48.104;11.702;2023-02-10T13:14:50;97265.75;;;3.29;53.07
62103;BME280;48077;48.104;11.702;2023-02-10T13:17:14;97297.94;;;3.52;52.97
62103;BME280;48077;48.104;11.702;2023-02-10T13:19:57;97286.13;;;3.47;53.14
62103;BME280;48077;48.104;11.702;2023-02-10T13:22:40;97291.16;;;3.77;52.12
62103;BME280;48077;48.104;11.702;2023-02-10T13:25:22;97283.75;;;3.53;52.82
62103;BME280;48077;48.104;11.702;2023-02-10T13:27:57;97293.50;;;3.43;52.88
62103;BME280;48077;48.104;11.702;2023-02-10T13:33:04;97283.16;;;3.22;50.73
62103;BME280;48077;48.104;11.702;2023-02-10T13:35:35;97295.06;;;3.36;50.22